Lakeview, MI (48850)

12:23 AM EDT on August 04, 2015 (GMT -0400)
Rainbow Lake | | Change Station
CLOSE
Current Station
Personal Weather Station
Location: Trufant, MI
Elevation: 909 ft
Nearby Weather Stations

Elev 909 ft 43.32 °N, 85.30 °W | Updated 4 seconds ago

Mostly Cloudy
Mostly Cloudy
63.7 °F
Feels Like 63.7 °F
N
0.0
Wind Variable Wind from North
Gusts 0.0 mph

Today
High -- | Low -- °F
--% Chance of Precip.
Yesterday
High -- | Low -- °F
Precip. -- in
6:33 AM 8:59 PM
Waning Gibbous, 81% visible
Pressure 29.87 in
Visibility 10.0 miles
Clouds Mostly Cloudy 10000 ft
Dew Point 57 °F
Humidity 78%
Rainfall 0.00 in
Snow Depth Not available.
UV 0.0 out of 12
Pollen 5.20 out of 12
Air Quality Not available.
Flu Activity Not available.
METAR KRQB 040415Z AUTO 28003KT 10SM BKN100 17/10 A2987 RMK AO2 T01710101

More Conditions Fewer Conditions

Pressure 29.87 in
Visibility 10.0 miles
Clouds Mostly Cloudy 10000 ft
Dew Point 57 °F
Humidity 78%
Rainfall 0.00 in
Snow Depth Not available.
UV 0.0 out of 12
Pollen 5.20 out of 12
Air Quality Not available.
Flu Activity Not available.
METAR KRQB 040415Z AUTO 28003KT 10SM BKN100 17/10 A2987 RMK AO2 T01710101

More Conditions Fewer Conditions

10-Day Weather Forecast

×

Almanac

Astronomy

Aug. 04, 2015 Rise Set
Actual Time
Civil Twilight
Nautical Twilight
Astronomical Twilight
Moon
Length of Visible Light
Length of Day
Tomorrow will be .
, % of the Moon is Illuminated

Today's Extremes

State Highs State Lows

Community

WunderPhotos

Upload Photos

1,843,861 photos uploaded!

WunderBlogs® & News

Nearby

Air Quality

  Air Quality AQ Index Pollutant
Not available.

Snow Depth

Station Depth Elevation

Earthquake Activity

City Distance Mag. Time & Date
Minimum magnitude displayed is 2.5.

Coastal Water Temperatures

Place Temperature

Stations

Nearby Weather Stations

Station Location Temp. Windchill Dew Point Humidity Wind Precip. Elev Updated Type